Time;durP1;ratioP1;P1;durP2;ratioP2;P2;SDS_P1;SDS_P2;PMS_P1;PMS_P2;Temp;Humidity;BMP_temperature;BMP_pressure;BME280_temperature;BME280_humidity;BME280_pressure;Samples;Min_cycle;Max_cycle;Signal;HPM_P1;HPM_P2
2023/07/22 00:01:53;;;;;;;0.10;0.10;;;;;;;20.13;62.40;101406.94;5029006;28;20154;-61
2023/07/22 00:04:19;;;;;;;0.10;0.10;;;;;;;20.29;61.97;101406.94;5009828;28;20489;-62
2023/07/22 00:06:44;;;;;;;0.10;0.10;;;;;;;20.42;61.83;101409.91;5029462;28;20029;-63
2023/07/22 00:09:09;;;;;;;0.10;0.10;;;;;;;20.85;59.63;101411.19;5028854;28;20037;-61
2023/07/22 00:11:35;;;;;;;0.10;0.10;;;;;;;21.20;58.64;101410.22;5028906;28;20042;-62
2023/07/22 00:14:01;;;;;;;0.17;0.17;;;;;;;20.72;60.18;101407.13;5029100;28;20029;-62
2023/07/22 00:16:26;;;;;;;0.10;0.10;;;;;;;21.02;59.62;101408.13;5028956;28;20489;-62
2023/07/22 00:18:53;;;;;;;0.20;0.20;;;;;;;20.59;60.83;101406.88;5029217;28;20026;-62
2023/07/22 00:21:18;;;;;;;0.20;0.20;;;;;;;20.68;60.22;101397.84;5028535;28;20545;-63
2023/07/22 00:23:46;;;;;;;0.17;0.17;;;;;;;21.06;59.95;101399.09;5028626;28;20038;-61
2023/07/22 00:26:11;;;;;;;0.10;0.10;;;;;;;20.90;59.83;101392.03;5028445;28;20037;-61
2023/07/22 00:28:36;;;;;;;0.10;0.10;;;;;;;20.80;60.30;101392.88;5028495;28;20089;-61
2023/07/22 00:31:03;;;;;;;0.15;0.15;;;;;;;20.74;60.61;101390.44;5028907;28;20045;-62
2023/07/22 00:33:28;;;;;;;0.15;0.15;;;;;;;20.93;60.32;101391.47;5028410;28;20030;-61
2023/07/22 00:35:54;;;;;;;0.10;0.10;;;;;;;21.16;59.87;101390.84;5008914;28;20049;-62
2023/07/22 00:38:19;;;;;;;0.10;0.10;;;;;;;20.91;60.78;101396.41;5009041;28;20038;-60
2023/07/22 00:40:45;;;;;;;0.20;0.20;;;;;;;20.94;60.73;101398.56;5012503;28;20042;-61
2023/07/22 00:43:10;;;;;;;0.10;0.10;;;;;;;21.39;58.53;101400.25;5015533;28;20397;-61
2023/07/22 00:45:36;;;;;;;0.13;0.13;;;;;;;21.51;59.11;101396.09;5013987;28;20455;-62
2023/07/22 00:48:04;;;;;;;0.10;0.10;;;;;;;21.46;58.95;101395.31;5032076;28;20030;-61
2023/07/22 00:50:30;;;;;;;0.20;0.20;;;;;;;21.57;58.07;101400.41;5032017;28;20106;-61
2023/07/22 00:52:56;;;;;;;0.10;0.10;;;;;;;21.78;57.87;101388.22;5032018;28;20037;-63
2023/07/22 00:55:22;;;;;;;0.10;0.10;;;;;;;21.72;58.02;101391.25;5031946;28;20044;-63
2023/07/22 00:57:47;;;;;;;0.10;0.10;;;;;;;21.34;59.03;101392.09;5032174;28;20100;-62
2023/07/22 01:00:15;;;;;;;0.10;0.10;;;;;;;21.39;59.52;101392.06;5031534;28;20557;-62
2023/07/22 01:02:41;;;;;;;0.10;0.10;;;;;;;21.71;58.25;101381.44;5030491;28;20049;-62
2023/07/22 01:05:07;;;;;;;0.10;0.10;;;;;;;21.54;58.42;101373.63;5031300;28;20527;-61
2023/07/22 01:07:32;;;;;;;0.10;0.10;;;;;;;21.53;59.24;101382.13;5031830;28;20551;-62
2023/07/22 01:09:58;;;;;;;0.10;0.10;;;;;;;21.18;60.13;101379.63;5031884;28;20119;-62
2023/07/22 01:12:23;;;;;;;0.10;0.10;;;;;;;20.57;62.38;101379.03;5031539;28;20034;-63
2023/07/22 01:14:49;;;;;;;0.10;0.10;;;;;;;20.86;60.38;101378.09;5031611;28;20034;-62
2023/07/22 01:17:15;;;;;;;0.10;0.10;;;;;;;20.74;60.44;101382.25;5031385;28;20037;-62
2023/07/22 01:19:41;;;;;;;0.10;0.10;;;;;;;21.22;59.01;101373.31;5031660;28;20103;-62
2023/07/22 01:22:10;;;;;;;0.13;0.13;;;;;;;21.22;58.75;101375.22;5031784;28;20469;-62
2023/07/22 01:24:36;;;;;;;0.10;0.10;;;;;;;21.11;59.27;101377.19;5031560;28;20412;-61
2023/07/22 01:27:03;;;;;;;0.20;0.20;;;;;;;20.85;60.68;101375.66;5031488;28;20036;-61
2023/07/22 01:29:28;;;;;;;0.10;0.10;;;;;;;21.02;60.48;101367.94;5031290;28;20120;-62
2023/07/22 01:31:55;;;;;;;0.10;0.10;;;;;;;21.16;59.02;101377.16;5031351;28;20124;-62
2023/07/22 01:34:21;;;;;;;0.10;0.10;;;;;;;20.85;60.29;101376.47;5031461;28;20076;-63
2023/07/22 01:36:48;;;;;;;0.10;0.10;;;;;;;21.20;59.10;101374.69;5031660;28;20037;-62
2023/07/22 01:39:14;;;;;;;0.10;0.10;;;;;;;21.18;58.74;101374.16;5031168;28;20375;-63
2023/07/22 01:41:40;;;;;;;0.10;0.10;;;;;;;20.77;60.33;101363.41;5031097;28;20509;-62
2023/07/22 01:44:05;;;;;;;0.10;0.10;;;;;;;21.04;60.17;101367.66;5030747;28;20049;-61
2023/07/22 01:46:31;;;;;;;0.17;0.17;;;;;;;21.20;58.56;101369.22;5031312;28;20029;-63
2023/07/22 01:48:56;;;;;;;0.13;0.13;;;;;;;21.15;58.85;101366.53;5031505;28;20495;-62
2023/07/22 01:51:21;;;;;;;0.10;0.10;;;;;;;21.30;58.64;101364.50;5029735;28;20036;-62
2023/07/22 01:53:47;;;;;;;0.10;0.10;;;;;;;21.10;60.04;101370.09;5030809;28;20184;-63
2023/07/22 01:56:13;;;;;;;0.10;0.10;;;;;;;21.04;60.12;101367.66;5030606;28;20037;-62
2023/07/22 01:58:38;;;;;;;0.10;0.10;;;;;;;21.20;59.56;101361.84;5030918;28;20118;-63
2023/07/22 02:01:04;;;;;;;0.20;0.20;;;;;;;21.08;59.68;101366.00;5031082;28;20086;-63
2023/07/22 02:03:29;;;;;;;0.10;0.10;;;;;;;21.02;60.56;101364.38;5030122;28;20083;-61
2023/07/22 02:06:02;;;;;;;0.20;0.20;;;;;;;21.22;59.42;101356.91;5030557;28;20448;-61
2023/07/22 02:08:27;;;;;;;0.13;0.13;;;;;;;21.16;59.63;101360.78;5030556;28;20048;-62
2023/07/22 02:10:52;;;;;;;0.10;0.10;;;;;;;21.05;59.61;101361.13;5030377;28;20037;-62
2023/07/22 02:13:18;;;;;;;0.10;0.10;;;;;;;20.52;62.55;101370.88;5030399;28;20030;-61
2023/07/22 02:15:44;;;;;;;0.10;0.10;;;;;;;20.85;61.50;101371.00;5030457;28;20556;-63
2023/07/22 02:18:09;;;;;;;0.15;0.15;;;;;;;20.57;61.87;101366.22;5030262;28;20037;-62
2023/07/22 02:20:34;;;;;;;0.10;0.10;;;;;;;20.74;61.78;101355.75;5030408;28;20045;-62
2023/07/22 02:23:00;;;;;;;0.10;0.10;;;;;;;21.04;60.21;101363.03;5030412;28;20041;-61
2023/07/22 02:25:25;;;;;;;0.10;0.10;;;;;;;20.61;62.33;101361.84;5030764;28;20361;-61
2023/07/22 02:27:50;;;;;;;0.10;0.10;;;;;;;20.66;61.94;101361.78;5031174;28;20028;-61
2023/07/22 02:30:17;;;;;;;0.10;0.10;;;;;;;20.97;60.47;101357.03;5030141;28;20053;-62
2023/07/22 02:32:43;;;;;;;0.10;0.10;;;;;;;20.84;60.74;101349.44;5030051;28;20033;-63
2023/07/22 02:35:09;;;;;;;0.10;0.10;;;;;;;20.69;61.33;101357.69;5030171;28;20034;-64
2023/07/22 02:37:38;;;;;;;0.15;0.15;;;;;;;20.56;61.73;101350.13;5030122;28;20120;-61
2023/07/22 02:40:07;;;;;;;0.20;0.20;;;;;;;20.65;61.29;101348.44;5030835;28;20107;-62
2023/07/22 02:42:35;;;;;;;0.10;0.10;;;;;;;20.56;61.04;101350.13;5030051;28;20057;-62
2023/07/22 02:45:01;;;;;;;0.10;0.10;;;;;;;20.65;61.16;101342.97;5029909;28;20469;-63
2023/07/22 02:47:27;;;;;;;0.10;0.10;;;;;;;20.56;61.24;101356.38;5029593;28;20088;-62
2023/07/22 02:49:52;;;;;;;0.10;0.10;;;;;;;20.64;61.34;101346.78;5029723;28;20440;-62
2023/07/22 02:52:17;;;;;;;0.10;0.10;;;;;;;20.58;61.41;101348.72;5029349;28;20116;-62
2023/07/22 02:55:13;;;;;;;0.15;0.15;;;;;;;20.65;61.34;101340.22;5030082;28;20528;-61
2023/07/22 02:57:39;;;;;;;0.10;0.10;;;;;;;20.50;61.46;101349.28;5029422;28;20505;-62
2023/07/22 03:00:07;;;;;;;0.10;0.10;;;;;;;20.53;61.83;101351.47;5029435;28;20039;-62
2023/07/22 03:02:33;;;;;;;0.15;0.15;;;;;;;20.50;61.62;101353.97;5029158;28;20033;-61
2023/07/22 03:04:59;;;;;;;0.13;0.13;;;;;;;20.39;62.06;101357.78;5029059;28;20050;-61
2023/07/22 03:07:26;;;;;;;0.10;0.10;;;;;;;20.39;62.41;101366.81;5029584;28;20044;-61
2023/07/22 03:09:51;;;;;;;0.20;0.20;;;;;;;20.33;62.66;101362.47;5030360;28;20381;-61
2023/07/22 03:12:17;;;;;;;0.20;0.20;;;;;;;20.39;61.13;101355.06;5029488;28;20039;-62
2023/07/22 03:14:42;;;;;;;0.10;0.10;;;;;;;20.43;62.15;101356.16;5029080;28;20041;-62
2023/07/22 03:17:08;;;;;;;0.10;0.10;;;;;;;20.41;62.18;101359.16;5029266;28;20041;-61
2023/07/22 03:19:33;;;;;;;0.10;0.10;;;;;;;20.31;63.14;101358.34;5029286;28;20045;-62
2023/07/22 03:21:58;;;;;;;0.10;0.10;;;;;;;20.50;62.32;101357.47;5029597;28;20039;-62
2023/07/22 03:24:25;;;;;;;0.10;0.10;;;;;;;20.42;62.58;101355.31;5029087;28;20049;-62
2023/07/22 03:26:50;;;;;;;0.20;0.20;;;;;;;20.48;63.17;101353.41;5029058;28;20617;-61
2023/07/22 03:29:15;;;;;;;0.20;0.20;;;;;;;20.46;63.63;101356.41;5029046;28;20126;-61
2023/07/22 03:31:41;;;;;;;0.10;0.10;;;;;;;20.47;63.55;101362.69;5028843;28;20045;-63
2023/07/22 03:34:06;;;;;;;0.20;0.20;;;;;;;20.69;61.98;101365.88;5029146;28;20052;-61
2023/07/22 03:36:34;;;;;;;0.20;0.20;;;;;;;20.45;63.07;101362.16;5029226;28;20037;-62
2023/07/22 03:39:01;;;;;;;0.10;0.10;;;;;;;20.27;63.67;101360.84;5028931;28;20044;-62
2023/07/22 03:41:26;;;;;;;0.10;0.10;;;;;;;20.66;62.61;101350.03;5028760;28;20136;-61
2023/07/22 03:43:51;;;;;;;0.20;0.20;;;;;;;20.48;62.42;101348.75;5028431;28;20038;-61
2023/07/22 03:46:17;;;;;;;0.08;0.08;;;;;;;20.36;62.64;101361.09;5028945;28;20091;-62
2023/07/22 03:48:42;;;;;;;0.10;0.10;;;;;;;20.36;63.27;101345.53;5029083;28;20033;-61
2023/07/22 03:51:07;;;;;;;0.10;0.10;;;;;;;20.34;63.73;101357.81;5028972;28;20517;-60
2023/07/22 03:53:33;;;;;;;0.10;0.10;;;;;;;20.22;64.64;101355.41;5028977;28;20033;-63
2023/07/22 03:55:58;;;;;;;0.10;0.10;;;;;;;20.34;63.71;101355.09;5028961;28;20520;-61
2023/07/22 03:58:24;;;;;;;0.10;0.10;;;;;;;20.18;64.80;101362.47;5028980;28;20381;-63
2023/07/22 04:00:49;;;;;;;0.20;0.20;;;;;;;20.55;63.12;101359.38;5028899;28;20235;-61
2023/07/22 04:03:14;;;;;;;0.10;0.10;;;;;;;20.15;64.92;101361.09;5025752;28;20041;-62
2023/07/22 04:05:40;;;;;;;0.17;0.17;;;;;;;20.47;63.75;101366.25;5024574;28;20034;-62
2023/07/22 04:08:05;;;;;;;0.10;0.10;;;;;;;20.33;64.41;101364.34;5018595;28;20723;-62
2023/07/22 04:10:31;;;;;;;0.10;0.10;;;;;;;20.38;64.77;101367.91;5017087;28;20045;-62
2023/07/22 04:12:56;;;;;;;0.10;0.10;;;;;;;20.52;63.87;101373.59;5014817;28;20371;-61
2023/07/22 04:15:21;;;;;;;0.10;0.10;;;;;;;20.19;65.46;101368.75;5031904;28;20033;-62
2023/07/22 04:17:47;;;;;;;0.10;0.10;;;;;;;20.14;64.77;101358.66;5031901;28;20041;-61
2023/07/22 04:20:12;;;;;;;0.10;0.10;;;;;;;20.55;63.89;101368.41;5032277;28;20527;-62
2023/07/22 04:22:38;;;;;;;0.10;0.10;;;;;;;20.31;64.77;101370.09;5032536;28;20037;-61
2023/07/22 04:25:04;;;;;;;0.20;0.20;;;;;;;20.34;65.04;101363.28;5015007;28;20036;-62
2023/07/22 04:27:29;;;;;;;0.13;0.13;;;;;;;20.22;64.55;101360.84;5032426;28;20049;-61
2023/07/22 04:29:55;;;;;;;0.15;0.15;;;;;;;20.53;63.69;101365.13;5032541;28;20053;-61
2023/07/22 04:32:20;;;;;;;0.10;0.10;;;;;;;20.16;64.97;101367.38;5032026;28;20048;-62
2023/07/22 04:34:46;;;;;;;0.10;0.10;;;;;;;20.38;65.35;101356.19;5032091;28;20037;-61
2023/07/22 04:37:12;;;;;;;0.15;0.15;;;;;;;20.20;65.29;101362.22;5032811;28;20030;-61
2023/07/22 04:39:38;;;;;;;0.10;0.10;;;;;;;20.17;66.29;101363.53;5031949;28;20053;-62
2023/07/22 04:42:03;;;;;;;0.17;0.17;;;;;;;20.15;67.39;101368.47;5031889;28;20080;-62
2023/07/22 04:44:29;;;;;;;0.10;0.10;;;;;;;20.31;66.63;101361.09;5031186;28;20436;-62
2023/07/22 04:46:54;;;;;;;0.10;0.10;;;;;;;20.47;66.29;101362.69;5031739;28;20037;-62
2023/07/22 04:49:19;;;;;;;0.10;0.10;;;;;;;20.56;65.27;101355.56;5031737;28;20440;-62
2023/07/22 04:51:46;;;;;;;0.10;0.10;;;;;;;20.86;64.52;101356.25;5032409;28;20036;-63
2023/07/22 04:54:11;;;;;;;0.10;0.10;;;;;;;20.27;66.94;101358.09;5031617;28;20109;-62
2023/07/22 04:56:38;;;;;;;0.10;0.10;;;;;;;20.58;65.20;101356.91;5031896;28;20136;-63
2023/07/22 04:59:03;;;;;;;0.10;0.10;;;;;;;20.50;66.25;101346.56;5031890;28;20044;-61
2023/07/22 05:01:29;;;;;;;0.10;0.10;;;;;;;20.70;65.88;101348.38;5032096;28;20029;-61
2023/07/22 05:03:55;;;;;;;0.20;0.20;;;;;;;20.17;67.70;101350.72;5031798;28;20029;-61
2023/07/22 05:06:20;;;;;;;0.00;0.00;;;;;;;20.53;66.82;101353.38;5013875;28;20041;-62
2023/07/22 05:08:46;;;;;;;0.10;0.10;;;;;;;20.71;65.40;101347.31;5031628;28;20041;-63
2023/07/22 05:11:11;;;;;;;0.10;0.10;;;;;;;20.60;66.79;101351.19;5031667;28;20030;-61
2023/07/22 05:13:37;;;;;;;0.10;0.10;;;;;;;20.49;65.67;101353.13;5031465;28;20327;-62
2023/07/22 05:16:02;;;;;;;0.10;0.10;;;;;;;20.08;67.83;101346.94;5032089;28;20037;-62
2023/07/22 05:18:27;;;;;;;0.10;0.10;;;;;;;20.55;65.55;101356.66;5031309;28;20109;-62
2023/07/22 05:20:53;;;;;;;0.00;0.00;;;;;;;20.75;64.38;101348.38;5031303;28;20042;-61
2023/07/22 05:23:18;;;;;;;0.10;0.10;;;;;;;20.28;66.83;101364.38;5031594;28;20033;-62
2023/07/22 05:25:44;;;;;;;0.10;0.10;;;;;;;20.97;64.84;101373.44;5031521;28;20033;-62
2023/07/22 05:28:09;;;;;;;0.13;0.13;;;;;;;19.74;68.40;101367.69;5032195;28;20064;-63
2023/07/22 05:30:34;;;;;;;0.20;0.20;;;;;;;20.22;67.10;101370.94;5031355;28;20149;-62
2023/07/22 05:33:00;;;;;;;0.10;0.10;;;;;;;20.80;66.00;101365.56;5031242;28;20114;-62
2023/07/22 05:35:25;;;;;;;0.10;0.10;;;;;;;21.24;64.39;101356.63;5030759;28;20037;-60
2023/07/22 05:37:50;;;;;;;0.10;0.10;;;;;;;21.43;63.82;101355.66;5030838;28;20045;-63
2023/07/22 05:40:16;;;;;;;0.10;0.10;;;;;;;21.21;64.58;101351.72;5030739;28;20037;-61
2023/07/22 05:42:41;;;;;;;0.10;0.10;;;;;;;21.28;64.21;101353.03;5031794;28;20025;-62
2023/07/22 05:45:07;;;;;;;0.10;0.10;;;;;;;21.40;63.58;101356.25;5030912;28;20056;-61
2023/07/22 05:47:33;;;;;;;0.10;0.10;;;;;;;21.43;63.03;101358.41;5030914;28;20054;-63
2023/07/22 05:49:58;;;;;;;0.15;0.15;;;;;;;21.23;63.76;101357.72;5031010;28;20129;-61
2023/07/22 05:52:23;;;;;;;0.10;0.10;;;;;;;21.55;63.35;101361.59;5030887;28;20064;-63
2023/07/22 05:54:49;;;;;;;0.10;0.10;;;;;;;21.44;64.09;101360.03;5031369;28;20432;-62
2023/07/22 05:57:15;;;;;;;0.10;0.10;;;;;;;21.67;62.78;101355.75;5031010;28;20033;-63
2023/07/22 05:59:40;;;;;;;0.10;0.10;;;;;;;21.81;62.38;101346.63;5030811;28;20502;-62
2023/07/22 06:02:07;;;;;;;0.10;0.10;;;;;;;21.50;62.88;101352.63;5030693;28;20509;-62
2023/07/22 06:04:33;;;;;;;0.10;0.10;;;;;;;21.93;62.32;101342.69;5030585;28;20212;-62
2023/07/22 06:06:58;;;;;;;0.10;0.10;;;;;;;21.90;62.14;101344.06;5030862;28;20037;-62
2023/07/22 06:09:24;;;;;;;0.10;0.10;;;;;;;20.83;65.98;101350.53;5030636;28;20033;-63
2023/07/22 06:11:49;;;;;;;0.15;0.15;;;;;;;21.99;61.93;101356.06;5030325;28;20038;-61
2023/07/22 06:14:14;;;;;;;0.10;0.10;;;;;;;21.37;64.00;101353.22;5030526;28;20025;-62
2023/07/22 06:16:40;;;;;;;0.10;0.10;;;;;;;21.16;65.61;101362.69;5030362;28;20044;-63
2023/07/22 06:19:05;;;;;;;0.10;0.10;;;;;;;21.71;63.28;101356.81;5030634;28;20501;-61
2023/07/22 06:21:31;;;;;;;0.10;0.10;;;;;;;21.61;64.08;101346.78;5030260;28;20042;-63
2023/07/22 06:23:56;;;;;;;0.10;0.10;;;;;;;22.20;61.97;101352.00;5030312;28;20041;-62
2023/07/22 06:26:21;;;;;;;0.10;0.10;;;;;;;21.77;62.93;101352.94;5030235;28;20070;-62
2023/07/22 06:28:47;;;;;;;0.05;0.05;;;;;;;22.04;62.24;101358.72;5030264;28;20092;-62
2023/07/22 06:31:12;;;;;;;0.10;0.10;;;;;;;22.45;61.67;101348.16;5030476;28;20453;-61
2023/07/22 06:33:38;;;;;;;0.10;0.10;;;;;;;22.33;61.82;101345.00;5029760;28;20033;-62
2023/07/22 06:36:05;;;;;;;0.10;0.10;;;;;;;22.79;60.83;101354.34;5029753;28;20049;-63
2023/07/22 06:38:30;;;;;;;0.10;0.10;;;;;;;22.80;60.70;101342.25;5029343;28;20060;-63
2023/07/22 06:40:57;;;;;;;0.10;0.10;;;;;;;23.02;60.47;101348.00;5030349;28;20041;-62
2023/07/22 06:43:22;;;;;;;0.10;0.10;;;;;;;23.29;59.68;101348.16;5029808;28;20056;-62
2023/07/22 06:45:47;;;;;;;0.10;0.10;;;;;;;23.08;59.26;101348.72;5030343;28;20018;-62
2023/07/22 06:48:13;;;;;;;0.10;0.10;;;;;;;23.32;58.54;101344.03;5029758;28;20048;-63
2023/07/22 06:50:38;;;;;;;0.00;0.00;;;;;;;23.58;57.89;101344.44;5029820;28;20385;-63
2023/07/22 06:53:03;;;;;;;0.08;0.08;;;;;;;23.63;57.92;101345.16;5029996;28;20041;-63
2023/07/22 06:55:29;;;;;;;0.05;0.05;;;;;;;23.50;58.69;101348.69;5029866;28;20466;-62
2023/07/22 06:57:57;;;;;;;0.10;0.10;;;;;;;23.71;57.73;101352.72;5030207;28;20052;-63
2023/07/22 07:00:22;;;;;;;0.00;0.00;;;;;;;23.57;58.17;101349.13;5029729;28;20030;-63
2023/07/22 07:02:48;;;;;;;0.03;0.03;;;;;;;23.95;57.29;101338.88;5029293;28;20072;-63
2023/07/22 07:05:13;;;;;;;0.00;0.00;;;;;;;24.05;56.88;101346.94;5011772;28;20041;-62
2023/07/22 07:07:39;;;;;;;0.00;0.00;;;;;;;24.26;57.20;101340.78;5028537;28;20037;-62
2023/07/22 07:10:05;;;;;;;0.00;0.00;;;;;;;24.24;56.38;101336.69;5030293;28;20022;-62
2023/07/22 07:12:31;;;;;;;0.05;0.05;;;;;;;23.68;57.34;101339.63;5029447;28;20064;-64
2023/07/22 07:14:56;;;;;;;0.00;0.00;;;;;;;23.27;58.88;101344.88;5029444;28;20045;-63
2023/07/22 07:17:22;;;;;;;0.08;0.08;;;;;;;23.00;59.55;101346.66;5029604;28;20351;-64
2023/07/22 07:19:47;;;;;;;0.10;0.10;;;;;;;23.72;57.62;101339.81;5029661;28;20049;-62
2023/07/22 07:22:13;;;;;;;0.10;0.10;;;;;;;24.25;55.60;101347.38;5030023;28;20029;-64
2023/07/22 07:24:38;;;;;;;0.00;0.00;;;;;;;24.00;55.84;101345.06;5029391;28;20034;-63
2023/07/22 07:27:04;;;;;;;0.03;0.03;;;;;;;24.39;55.37;101347.41;5029526;28;20413;-62
2023/07/22 07:29:29;;;;;;;0.00;0.00;;;;;;;24.41;54.68;101342.41;5029343;28;20394;-63
2023/07/22 07:31:55;;;;;;;0.10;0.10;;;;;;;24.33;55.01;101338.44;5029495;28;20025;-61
2023/07/22 07:34:20;;;;;;;0.00;0.00;;;;;;;23.72;57.55;101339.81;5028721;28;20021;-63
2023/07/22 07:36:45;;;;;;;0.00;0.00;;;;;;;24.46;54.95;101338.75;5029638;28;20025;-63
2023/07/22 07:39:11;;;;;;;0.00;0.00;;;;;;;23.82;57.64;101345.16;5028913;28;20033;-67
2023/07/22 07:41:37;;;;;;;0.00;0.00;;;;;;;23.73;57.89;101334.03;5029094;28;20117;-63
2023/07/22 07:44:03;;;;;;;0.00;0.00;;;;;;;23.80;57.32;101339.13;5039145;28;20040;-62
2023/07/22 07:46:29;;;;;;;0.00;0.00;;;;;;;23.89;57.01;101340.88;5049218;28;20477;-63
2023/07/22 07:49:01;;;;;;;0.08;0.08;;;;;;;24.37;55.96;101342.19;5033999;28;20051;-63
2023/07/22 07:51:29;;;;;;;0.00;0.00;;;;;;;24.26;56.22;101338.03;5053640;28;20505;-63
2023/07/22 07:53:55;;;;;;;0.00;0.00;;;;;;;24.10;55.41;101339.44;5053244;28;20451;-63
2023/07/22 07:56:22;;;;;;;0.00;0.00;;;;;;;24.69;53.83;101338.53;5048883;28;20044;-64
2023/07/22 07:58:49;;;;;;;0.00;0.00;;;;;;;25.65;52.18;101334.41;5033291;28;20041;-64
2023/07/22 08:01:15;;;;;;;0.00;0.00;;;;;;;25.13;51.63;101324.94;5033445;28;20757;-63
2023/07/22 08:03:41;;;;;;;0.00;0.00;;;;;;;24.95;52.50;101325.06;5033192;28;20046;-62
2023/07/22 08:06:08;;;;;;;0.00;0.00;;;;;;;24.98;51.05;101328.00;5032902;28;20034;-62
2023/07/22 08:08:33;;;;;;;0.00;0.00;;;;;;;24.20;51.89;101325.50;5032887;28;20061;-63
2023/07/22 08:11:04;;;;;;;0.00;0.00;;;;;;;25.08;50.25;101327.00;5032682;28;20064;-62
2023/07/22 08:13:30;;;;;;;0.00;0.00;;;;;;;23.96;51.80;101324.81;5033025;28;20025;-64
2023/07/22 08:16:00;;;;;;;0.00;0.00;;;;;;;23.96;51.68;101333.06;5033546;28;20037;-63
2023/07/22 08:18:25;;;;;;;0.00;0.00;;;;;;;24.27;52.10;101330.59;5032606;28;20751;-62
2023/07/22 08:20:53;;;;;;;0.00;0.00;;;;;;;24.41;49.80;101329.47;5032935;28;20125;-62
2023/07/22 08:23:19;;;;;;;0.05;0.05;;;;;;;23.77;51.47;101323.25;5032747;28;20050;-63
2023/07/22 08:25:44;;;;;;;0.00;0.00;;;;;;;24.35;50.29;101325.19;5015382;28;20751;-63
2023/07/22 08:28:10;;;;;;;0.00;0.00;;;;;;;24.32;50.33;101325.00;5033485;28;20025;-63
2023/07/22 08:30:35;;;;;;;0.00;0.00;;;;;;;24.75;49.54;101322.75;5032468;28;20033;-63
2023/07/22 08:33:01;;;;;;;0.00;0.00;;;;;;;24.04;50.38;101315.91;5032557;28;20409;-63
2023/07/22 08:35:26;;;;;;;0.00;0.00;;;;;;;24.64;49.67;101329.56;5032228;28;20494;-62
2023/07/22 08:37:52;;;;;;;0.03;0.03;;;;;;;23.50;52.91;101324.00;5032170;28;20041;-62
2023/07/22 08:40:18;;;;;;;0.00;0.00;;;;;;;24.13;50.95;101327.03;5032264;28;20117;-63
2023/07/22 08:42:45;;;;;;;0.00;0.00;;;;;;;23.78;52.73;101335.88;5031664;28;20029;-62
2023/07/22 08:45:11;;;;;;;0.00;0.00;;;;;;;24.35;51.70;101322.44;5032335;28;20466;-62
2023/07/22 08:47:46;;;;;;;0.00;0.00;;;;;;;24.72;50.35;101324.22;5031965;28;20034;-61
2023/07/22 08:50:17;;;;;;;0.08;0.08;;;;;;;24.68;51.12;101319.59;5032516;28;20095;-63
2023/07/22 08:52:44;;;;;;;0.00;0.00;;;;;;;24.10;53.03;101319.38;5032522;28;20493;-63
2023/07/22 08:55:10;;;;;;;0.00;0.00;;;;;;;24.66;51.65;101317.16;5032624;28;20505;-62
2023/07/22 08:57:38;;;;;;;0.00;0.00;;;;;;;24.56;52.27;101316.56;5031932;28;20068;-63
2023/07/22 09:00:06;;;;;;;0.00;0.00;;;;;;;24.30;53.04;101319.81;5013013;28;20041;-63
2023/07/22 09:02:33;;;;;;;0.00;0.00;;;;;;;24.18;52.73;101313.19;5031691;28;20527;-63
2023/07/22 09:04:59;;;;;;;0.05;0.05;;;;;;;24.30;51.28;101308.84;5031837;28;20472;-62
2023/07/22 09:07:25;;;;;;;0.00;0.00;;;;;;;24.90;49.90;101308.69;5031788;28;20033;-62
2023/07/22 09:09:51;;;;;;;0.00;0.00;;;;;;;24.38;51.00;101304.56;5032220;28;20033;-63
2023/07/22 09:12:17;;;;;;;0.00;0.00;;;;;;;25.04;50.37;101314.97;5031605;28;20564;-62
2023/07/22 09:14:44;;;;;;;0.00;0.00;;;;;;;24.30;51.80;101308.84;5031598;28;20037;-63
2023/07/22 09:17:09;;;;;;;0.00;0.00;;;;;;;25.49;47.58;101305.66;5031405;28;20030;-63
2023/07/22 09:19:35;;;;;;;0.00;0.00;;;;;;;24.85;48.80;101304.13;5031695;28;20033;-64
2023/07/22 09:22:00;;;;;;;0.00;0.00;;;;;;;25.10;48.22;101295.28;5032103;28;20029;-63
2023/07/22 09:24:28;;;;;;;0.00;0.00;;;;;;;24.69;49.48;101294.53;5031410;28;20045;-64
2023/07/22 09:26:54;;;;;;;0.00;0.00;;;;;;;25.26;48.59;101291.06;5031439;28;20037;-64
2023/07/22 09:29:33;;;;;;;0.00;0.00;;;;;;;25.98;47.16;101288.94;5031554;28;20037;-62
2023/07/22 09:31:58;;;;;;;0.00;0.00;;;;;;;24.86;47.36;101297.50;5031236;28;20120;-65
2023/07/22 09:34:25;;;;;;;0.00;0.00;;;;;;;24.68;47.46;101289.34;5031415;28;20485;-62
2023/07/22 09:36:54;;;;;;;0.00;0.00;;;;;;;25.40;46.52;101296.53;5031733;28;20210;-64
2023/07/22 09:39:21;;;;;;;0.00;0.00;;;;;;;25.38;45.24;101292.41;5031834;28;20037;-61
2023/07/22 09:41:46;;;;;;;0.00;0.00;;;;;;;24.78;46.06;101291.91;5031083;28;20037;-63
2023/07/22 09:44:12;;;;;;;0.00;0.00;;;;;;;25.67;44.77;101290.88;5042475;28;20072;-62
2023/07/22 09:46:38;;;;;;;0.00;0.00;;;;;;;24.97;46.18;101282.41;5050919;28;20047;-62
2023/07/22 09:49:05;;;;;;;0.00;0.00;;;;;;;25.18;45.81;101282.72;5051656;28;20070;-66
2023/07/22 09:51:39;;;;;;;0.00;0.00;;;;;;;25.25;45.27;101289.44;5051287;28;20043;-62
2023/07/22 09:54:05;;;;;;;0.00;0.00;;;;;;;25.59;44.65;101279.81;5034783;28;20033;-63
2023/07/22 09:56:31;;;;;;;0.00;0.00;;;;;;;25.56;45.81;101283.19;5031096;28;20552;-62
2023/07/22 09:59:02;;;;;;;0.00;0.00;;;;;;;25.35;44.21;101274.63;5013476;28;20071;-62
2023/07/22 10:01:28;;;;;;;0.00;0.00;;;;;;;25.22;44.97;101273.53;5031307;28;20083;-62
2023/07/22 10:03:56;;;;;;;0.00;0.00;;;;;;;25.25;43.93;101267.44;5031258;28;20029;-62
2023/07/22 10:06:24;;;;;;;0.00;0.00;;;;;;;24.94;43.36;101273.97;5030925;28;20041;-63
2023/07/22 10:08:49;;;;;;;0.00;0.00;;;;;;;25.21;43.15;101271.94;5030560;28;20034;-62
2023/07/22 10:11:15;;;;;;;0.00;0.00;;;;;;;24.49;46.05;101277.69;5030079;28;20030;-62
2023/07/22 10:13:41;;;;;;;0.00;0.00;;;;;;;23.78;46.65;101281.81;5031010;28;20037;-64
2023/07/22 10:16:07;;;;;;;0.00;0.00;;;;;;;24.12;46.72;101281.44;5031165;28;20512;-61
2023/07/22 10:18:33;;;;;;;0.00;0.00;;;;;;;24.24;47.10;101285.31;5030010;28;20103;-62
2023/07/22 10:21:00;;;;;;;0.00;0.00;;;;;;;23.86;50.99;101288.53;5030256;28;20049;-63
2023/07/22 10:23:26;;;;;;;0.00;0.00;;;;;;;22.97;56.30;101297.91;5030156;28;20408;-61
2023/07/22 10:25:53;;;;;;;0.00;0.00;;;;;;;23.23;58.40;101291.75;5030355;28;20486;-61
2023/07/22 10:28:20;;;;;;;0.00;0.00;;;;;;;23.12;58.11;101294.94;5030028;28;20063;-61
2023/07/22 10:30:46;;;;;;;0.10;0.10;;;;;;;22.88;60.64;101310.66;5030811;28;20033;-64
2023/07/22 10:33:11;;;;;;;0.00;0.00;;;;;;;22.97;60.87;101301.47;5029730;28;20496;-63
2023/07/22 10:35:42;;;;;;;0.05;0.05;;;;;;;23.67;58.67;101296.81;5029937;28;20033;-61
2023/07/22 10:38:12;;;;;;;0.10;0.10;;;;;;;23.19;59.94;101296.19;5029833;28;20060;-62
2023/07/22 10:40:51;;;;;;;0.03;0.03;;;;;;;23.51;58.85;101290.75;5029821;28;20041;-61
2023/07/22 10:43:23;;;;;;;0.10;0.10;;;;;;;23.38;59.08;101294.28;5029721;28;20071;-63
2023/07/22 10:45:51;;;;;;;0.00;0.00;;;;;;;23.55;57.87;101299.22;5030512;28;20511;-62
2023/07/22 10:48:17;;;;;;;0.00;0.00;;;;;;;23.85;58.10;101300.59;5029675;28;20064;-62
2023/07/22 10:50:46;;;;;;;0.10;0.10;;;;;;;23.51;62.26;101309.16;5029675;28;20030;-62
2023/07/22 10:53:24;;;;;;;0.03;0.03;;;;;;;22.88;62.42;101316.16;5029747;28;20042;-63
2023/07/22 10:56:09;;;;;;;0.10;0.10;;;;;;;23.19;62.09;101317.34;5029597;28;20394;-62
2023/07/22 10:58:46;;;;;;;0.10;0.10;;;;;;;22.96;62.77;101312.75;5029749;28;20095;-63
2023/07/22 11:01:29;;;;;;;0.10;0.10;;;;;;;23.23;62.02;101318.38;5030301;28;20034;-61
2023/07/22 11:04:13;;;;;;;0.00;0.00;;;;;;;22.65;63.93;101317.81;5029472;28;20045;-61
2023/07/22 11:06:52;;;;;;;0.10;0.10;;;;;;;22.55;65.07;101321.47;5029688;28;20038;-62
2023/07/22 11:09:26;;;;;;;0.10;0.10;;;;;;;22.09;66.84;101319.53;5029492;28;20037;-62
2023/07/22 11:12:00;;;;;;;0.00;0.00;;;;;;;22.35;67.54;101326.34;5011879;28;20164;-62
2023/07/22 11:14:31;;;;;;;0.00;0.00;;;;;;;22.01;69.49;101318.25;5029308;28;20040;-63
2023/07/22 11:16:58;;;;;;;0.10;0.10;;;;;;;21.52;70.98;101310.19;5029428;28;20148;-62
2023/07/22 11:19:25;;;;;;;0.10;0.10;;;;;;;21.19;73.75;101308.25;5028965;28;20116;-61
2023/07/22 11:21:52;;;;;;;0.10;0.10;;;;;;;21.30;74.15;101307.09;5030161;28;20026;-61